sensor_id;sensor_type;location;lat;lon;timestamp;temperature;humidity
30628;DHT22;17394;50.890;4.724;2023-06-01T00:00:47;15.80;99.90
30628;DHT22;17394;50.890;4.724;2023-06-01T00:03:13;15.80;99.90
30628;DHT22;17394;50.890;4.724;2023-06-01T00:05:39;15.70;99.90
30628;DHT22;17394;50.890;4.724;2023-06-01T00:08:05;15.70;99.90
30628;DHT22;17394;50.890;4.724;2023-06-01T00:10:32;15.60;99.90
30628;DHT22;17394;50.890;4.724;2023-06-01T00:12:58;15.60;99.90
30628;DHT22;17394;50.890;4.724;2023-06-01T00:15:24;15.60;99.90
30628;DHT22;17394;50.890;4.724;2023-06-01T00:17:50;15.50;99.90
30628;DHT22;17394;50.890;4.724;2023-06-01T00:20:17;15.50;99.90
30628;DHT22;17394;50.890;4.724;2023-06-01T00:22:43;15.40;99.90
30628;DHT22;17394;50.890;4.724;2023-06-01T00:25:09;15.40;99.90
30628;DHT22;17394;50.890;4.724;2023-06-01T00:27:35;15.30;99.90
30628;DHT22;17394;50.890;4.724;2023-06-01T00:30:03;15.30;99.90
30628;DHT22;17394;50.890;4.724;2023-06-01T00:32:29;15.20;99.90
30628;DHT22;17394;50.890;4.724;2023-06-01T00:34:56;15.20;99.90
30628;DHT22;17394;50.890;4.724;2023-06-01T00:37:22;15.10;99.90
30628;DHT22;17394;50.890;4.724;2023-06-01T00:39:48;15.20;99.90
30628;DHT22;17394;50.890;4.724;2023-06-01T00:42:14;15.00;99.90
30628;DHT22;17394;50.890;4.724;2023-06-01T00:44:40;15.00;99.90
30628;DHT22;17394;50.890;4.724;2023-06-01T00:47:06;15.00;99.90
30628;DHT22;17394;50.890;4.724;2023-06-01T00:49:33;14.90;99.90
30628;DHT22;17394;50.890;4.724;2023-06-01T00:51:59;14.90;99.90
30628;DHT22;17394;50.890;4.724;2023-06-01T00:54:26;14.80;99.90
30628;DHT22;17394;50.890;4.724;2023-06-01T00:56:53;14.80;99.90
30628;DHT22;17394;50.890;4.724;2023-06-01T00:59:19;14.70;99.90
30628;DHT22;17394;50.890;4.724;2023-06-01T01:01:45;14.70;99.90
30628;DHT22;17394;50.890;4.724;2023-06-01T01:04:11;14.60;99.90
30628;DHT22;17394;50.890;4.724;2023-06-01T01:11:43;14.50;99.90
30628;DHT22;17394;50.890;4.724;2023-06-01T01:14:14;14.50;99.90
30628;DHT22;17394;50.890;4.724;2023-06-01T01:16:46;14.40;99.90
30628;DHT22;17394;50.890;4.724;2023-06-01T01:28:08;14.30;99.90
30628;DHT22;17394;50.890;4.724;2023-06-01T01:30:37;14.30;99.90
30628;DHT22;17394;50.890;4.724;2023-06-01T01:33:04;14.20;99.90
30628;DHT22;17394;50.890;4.724;2023-06-01T01:35:31;14.20;99.90
30628;DHT22;17394;50.890;4.724;2023-06-01T01:37:58;14.20;99.90
30628;DHT22;17394;50.890;4.724;2023-06-01T01:40:25;14.10;99.90
30628;DHT22;17394;50.890;4.724;2023-06-01T01:42:51;14.10;99.90
30628;DHT22;17394;50.890;4.724;2023-06-01T01:45:18;14.00;99.90
30628;DHT22;17394;50.890;4.724;2023-06-01T01:47:54;13.90;99.90
30628;DHT22;17394;50.890;4.724;2023-06-01T01:50:21;13.90;99.90
30628;DHT22;17394;50.890;4.724;2023-06-01T01:52:48;13.90;99.90
30628;DHT22;17394;50.890;4.724;2023-06-01T01:55:16;13.90;99.90
30628;DHT22;17394;50.890;4.724;2023-06-01T01:57:44;13.80;99.90
30628;DHT22;17394;50.890;4.724;2023-06-01T02:00:11;13.80;99.90
30628;DHT22;17394;50.890;4.724;2023-06-01T02:02:39;13.80;99.90
30628;DHT22;17394;50.890;4.724;2023-06-01T02:05:05;13.70;99.90
30628;DHT22;17394;50.890;4.724;2023-06-01T02:07:33;13.70;99.90
30628;DHT22;17394;50.890;4.724;2023-06-01T02:10:00;13.70;99.90
30628;DHT22;17394;50.890;4.724;2023-06-01T02:12:25;13.60;99.90
30628;DHT22;17394;50.890;4.724;2023-06-01T02:14:53;13.60;99.90
30628;DHT22;17394;50.890;4.724;2023-06-01T02:17:19;13.60;99.90
30628;DHT22;17394;50.890;4.724;2023-06-01T02:19:47;13.60;99.90
30628;DHT22;17394;50.890;4.724;2023-06-01T02:22:13;13.50;99.90
30628;DHT22;17394;50.890;4.724;2023-06-01T02:24:39;13.50;99.90
30628;DHT22;17394;50.890;4.724;2023-06-01T02:27:06;13.40;99.90
30628;DHT22;17394;50.890;4.724;2023-06-01T02:29:32;13.40;99.90
30628;DHT22;17394;50.890;4.724;2023-06-01T02:31:59;13.40;99.90
30628;DHT22;17394;50.890;4.724;2023-06-01T02:34:25;13.40;99.90
30628;DHT22;17394;50.890;4.724;2023-06-01T02:36:51;13.30;99.90
30628;DHT22;17394;50.890;4.724;2023-06-01T02:39:21;13.30;99.90
30628;DHT22;17394;50.890;4.724;2023-06-01T02:41:48;13.20;99.90
30628;DHT22;17394;50.890;4.724;2023-06-01T02:44:14;13.20;99.90
30628;DHT22;17394;50.890;4.724;2023-06-01T02:46:41;13.20;99.90
30628;DHT22;17394;50.890;4.724;2023-06-01T02:49:07;13.10;99.90
30628;DHT22;17394;50.890;4.724;2023-06-01T02:51:33;13.10;99.90
30628;DHT22;17394;50.890;4.724;2023-06-01T02:53:59;13.00;99.90
30628;DHT22;17394;50.890;4.724;2023-06-01T02:56:26;13.00;99.90
30628;DHT22;17394;50.890;4.724;2023-06-01T02:58:53;13.00;99.90
30628;DHT22;17394;50.890;4.724;2023-06-01T03:01:19;13.00;99.90
30628;DHT22;17394;50.890;4.724;2023-06-01T03:03:46;12.90;99.90
30628;DHT22;17394;50.890;4.724;2023-06-01T03:06:12;12.90;99.90
30628;DHT22;17394;50.890;4.724;2023-06-01T03:08:39;12.90;99.90
30628;DHT22;17394;50.890;4.724;2023-06-01T03:11:05;12.80;99.90
30628;DHT22;17394;50.890;4.724;2023-06-01T03:13:31;12.80;99.90
30628;DHT22;17394;50.890;4.724;2023-06-01T03:15:57;12.70;99.90
30628;DHT22;17394;50.890;4.724;2023-06-01T03:18:23;12.70;99.90
30628;DHT22;17394;50.890;4.724;2023-06-01T03:20:50;12.60;99.90
30628;DHT22;17394;50.890;4.724;2023-06-01T03:23:17;12.60;99.90
30628;DHT22;17394;50.890;4.724;2023-06-01T03:25:45;12.60;99.90
30628;DHT22;17394;50.890;4.724;2023-06-01T03:28:11;12.60;99.90
30628;DHT22;17394;50.890;4.724;2023-06-01T03:30:38;12.50;99.90
30628;DHT22;17394;50.890;4.724;2023-06-01T03:33:04;12.40;99.90
30628;DHT22;17394;50.890;4.724;2023-06-01T03:35:31;12.40;99.90
30628;DHT22;17394;50.890;4.724;2023-06-01T03:37:57;12.40;99.90
30628;DHT22;17394;50.890;4.724;2023-06-01T03:40:24;12.30;99.90
30628;DHT22;17394;50.890;4.724;2023-06-01T03:42:50;12.30;99.90
30628;DHT22;17394;50.890;4.724;2023-06-01T03:45:17;12.20;99.90
30628;DHT22;17394;50.890;4.724;2023-06-01T03:47:44;12.20;99.90
30628;DHT22;17394;50.890;4.724;2023-06-01T03:50:10;12.20;99.90
30628;DHT22;17394;50.890;4.724;2023-06-01T03:52:36;12.20;99.90
30628;DHT22;17394;50.890;4.724;2023-06-01T03:55:03;12.20;99.90
30628;DHT22;17394;50.890;4.724;2023-06-01T03:57:36;12.20;99.90
30628;DHT22;17394;50.890;4.724;2023-06-01T04:00:05;12.10;99.90
30628;DHT22;17394;50.890;4.724;2023-06-01T04:02:46;12.10;99.90
30628;DHT22;17394;50.890;4.724;2023-06-01T04:05:14;12.10;99.90
30628;DHT22;17394;50.890;4.724;2023-06-01T04:07:43;12.00;99.90
30628;DHT22;17394;50.890;4.724;2023-06-01T04:10:10;12.10;99.90
30628;DHT22;17394;50.890;4.724;2023-06-01T04:12:42;12.10;99.90
30628;DHT22;17394;50.890;4.724;2023-06-01T04:15:09;12.00;99.90
30628;DHT22;17394;50.890;4.724;2023-06-01T04:17:37;12.00;99.90
30628;DHT22;17394;50.890;4.724;2023-06-01T04:20:04;12.00;99.90
30628;DHT22;17394;50.890;4.724;2023-06-01T04:22:38;12.00;99.90
30628;DHT22;17394;50.890;4.724;2023-06-01T04:25:05;12.00;99.90
30628;DHT22;17394;50.890;4.724;2023-06-01T04:27:32;12.00;99.90
30628;DHT22;17394;50.890;4.724;2023-06-01T04:30:05;11.90;99.90
30628;DHT22;17394;50.890;4.724;2023-06-01T04:32:34;12.00;99.90
30628;DHT22;17394;50.890;4.724;2023-06-01T04:35:01;12.00;99.90
30628;DHT22;17394;50.890;4.724;2023-06-01T04:37:33;12.00;99.90
30628;DHT22;17394;50.890;4.724;2023-06-01T04:40:03;12.00;99.90
30628;DHT22;17394;50.890;4.724;2023-06-01T04:42:33;12.00;99.90
30628;DHT22;17394;50.890;4.724;2023-06-01T04:44:59;12.00;99.90
30628;DHT22;17394;50.890;4.724;2023-06-01T04:47:27;12.00;99.90
30628;DHT22;17394;50.890;4.724;2023-06-01T04:49:54;12.00;99.90
30628;DHT22;17394;50.890;4.724;2023-06-01T04:52:21;12.00;99.90
30628;DHT22;17394;50.890;4.724;2023-06-01T04:54:48;12.00;99.90
30628;DHT22;17394;50.890;4.724;2023-06-01T04:57:14;12.10;99.90
30628;DHT22;17394;50.890;4.724;2023-06-01T04:59:41;12.10;99.90
30628;DHT22;17394;50.890;4.724;2023-06-01T05:02:08;12.10;99.90
30628;DHT22;17394;50.890;4.724;2023-06-01T05:04:34;12.10;99.90
30628;DHT22;17394;50.890;4.724;2023-06-01T05:07:00;12.10;99.90
30628;DHT22;17394;50.890;4.724;2023-06-01T05:09:27;12.10;99.90
30628;DHT22;17394;50.890;4.724;2023-06-01T05:11:53;12.10;99.90
30628;DHT22;17394;50.890;4.724;2023-06-01T05:14:20;12.10;99.90
30628;DHT22;17394;50.890;4.724;2023-06-01T05:16:46;12.20;99.90
30628;DHT22;17394;50.890;4.724;2023-06-01T05:19:14;12.20;99.90
30628;DHT22;17394;50.890;4.724;2023-06-01T05:21:41;12.20;99.90
30628;DHT22;17394;50.890;4.724;2023-06-01T05:24:07;12.20;99.90
30628;DHT22;17394;50.890;4.724;2023-06-01T05:26:33;12.30;99.90
30628;DHT22;17394;50.890;4.724;2023-06-01T05:28:59;12.30;99.90
30628;DHT22;17394;50.890;4.724;2023-06-01T05:31:26;12.30;99.90
30628;DHT22;17394;50.890;4.724;2023-06-01T05:33:53;12.30;99.90
30628;DHT22;17394;50.890;4.724;2023-06-01T05:36:19;12.30;99.90
30628;DHT22;17394;50.890;4.724;2023-06-01T05:38:46;12.30;99.90
30628;DHT22;17394;50.890;4.724;2023-06-01T05:41:12;12.30;99.90
30628;DHT22;17394;50.890;4.724;2023-06-01T05:43:40;12.40;99.90
30628;DHT22;17394;50.890;4.724;2023-06-01T05:46:06;12.50;99.90
30628;DHT22;17394;50.890;4.724;2023-06-01T05:48:32;12.50;99.90
30628;DHT22;17394;50.890;4.724;2023-06-01T05:50:58;12.40;99.90
30628;DHT22;17394;50.890;4.724;2023-06-01T05:53:24;12.40;99.90
30628;DHT22;17394;50.890;4.724;2023-06-01T05:55:51;12.40;99.90
30628;DHT22;17394;50.890;4.724;2023-06-01T05:58:17;12.40;99.90
30628;DHT22;17394;50.890;4.724;2023-06-01T06:00:43;12.30;99.90
30628;DHT22;17394;50.890;4.724;2023-06-01T06:03:10;12.30;99.90
30628;DHT22;17394;50.890;4.724;2023-06-01T06:05:36;12.30;99.90
30628;DHT22;17394;50.890;4.724;2023-06-01T06:08:03;12.40;99.90
30628;DHT22;17394;50.890;4.724;2023-06-01T06:10:29;12.30;99.90
30628;DHT22;17394;50.890;4.724;2023-06-01T06:12:55;12.20;99.90
30628;DHT22;17394;50.890;4.724;2023-06-01T06:15:21;12.20;99.90
30628;DHT22;17394;50.890;4.724;2023-06-01T06:17:48;12.20;99.90
30628;DHT22;17394;50.890;4.724;2023-06-01T06:20:15;12.30;99.90
30628;DHT22;17394;50.890;4.724;2023-06-01T06:22:42;12.20;99.90
30628;DHT22;17394;50.890;4.724;2023-06-01T06:25:08;12.20;99.90
30628;DHT22;17394;50.890;4.724;2023-06-01T06:27:35;12.20;99.90
30628;DHT22;17394;50.890;4.724;2023-06-01T06:30:01;12.30;99.90
30628;DHT22;17394;50.890;4.724;2023-06-01T06:32:28;12.40;99.90
30628;DHT22;17394;50.890;4.724;2023-06-01T06:34:54;12.40;99.90
30628;DHT22;17394;50.890;4.724;2023-06-01T06:37:20;12.40;99.90
30628;DHT22;17394;50.890;4.724;2023-06-01T06:39:46;12.30;99.90
30628;DHT22;17394;50.890;4.724;2023-06-01T06:42:12;12.30;99.90
30628;DHT22;17394;50.890;4.724;2023-06-01T06:44:38;12.20;99.90
30628;DHT22;17394;50.890;4.724;2023-06-01T06:47:05;12.20;99.90
30628;DHT22;17394;50.890;4.724;2023-06-01T06:49:31;12.30;99.90
30628;DHT22;17394;50.890;4.724;2023-06-01T06:52:00;12.30;99.90
30628;DHT22;17394;50.890;4.724;2023-06-01T06:54:26;12.30;99.90
30628;DHT22;17394;50.890;4.724;2023-06-01T06:56:52;12.30;99.90
30628;DHT22;17394;50.890;4.724;2023-06-01T06:59:18;12.40;99.90
30628;DHT22;17394;50.890;4.724;2023-06-01T07:01:44;12.40;99.90
30628;DHT22;17394;50.890;4.724;2023-06-01T07:04:10;12.60;99.90
30628;DHT22;17394;50.890;4.724;2023-06-01T07:06:36;12.60;99.90
30628;DHT22;17394;50.890;4.724;2023-06-01T07:09:02;12.70;99.90
30628;DHT22;17394;50.890;4.724;2023-06-01T07:11:31;12.70;99.90
30628;DHT22;17394;50.890;4.724;2023-06-01T07:13:57;12.70;99.90
30628;DHT22;17394;50.890;4.724;2023-06-01T07:16:24;12.80;99.90
30628;DHT22;17394;50.890;4.724;2023-06-01T07:18:50;12.80;99.90
30628;DHT22;17394;50.890;4.724;2023-06-01T07:21:17;12.90;99.90
30628;DHT22;17394;50.890;4.724;2023-06-01T07:23:44;12.90;99.90
30628;DHT22;17394;50.890;4.724;2023-06-01T07:26:11;13.00;99.90
30628;DHT22;17394;50.890;4.724;2023-06-01T07:28:37;13.00;99.90
30628;DHT22;17394;50.890;4.724;2023-06-01T07:31:03;13.20;99.90
30628;DHT22;17394;50.890;4.724;2023-06-01T07:33:30;13.30;99.90
30628;DHT22;17394;50.890;4.724;2023-06-01T07:35:56;13.50;99.90
30628;DHT22;17394;50.890;4.724;2023-06-01T07:38:23;13.50;99.90
30628;DHT22;17394;50.890;4.724;2023-06-01T07:40:51;13.50;99.90
30628;DHT22;17394;50.890;4.724;2023-06-01T07:43:17;13.60;99.90
30628;DHT22;17394;50.890;4.724;2023-06-01T07:45:43;13.70;99.90
30628;DHT22;17394;50.890;4.724;2023-06-01T07:48:09;13.80;99.90
30628;DHT22;17394;50.890;4.724;2023-06-01T07:50:36;13.90;99.90
30628;DHT22;17394;50.890;4.724;2023-06-01T07:53:02;14.10;99.90
30628;DHT22;17394;50.890;4.724;2023-06-01T07:55:30;14.20;99.90
30628;DHT22;17394;50.890;4.724;2023-06-01T07:57:56;14.40;99.90
30628;DHT22;17394;50.890;4.724;2023-06-01T08:00:22;14.30;99.90
30628;DHT22;17394;50.890;4.724;2023-06-01T08:02:48;14.20;99.90
30628;DHT22;17394;50.890;4.724;2023-06-01T08:05:15;14.20;99.90
30628;DHT22;17394;50.890;4.724;2023-06-01T08:07:43;14.20;99.90
30628;DHT22;17394;50.890;4.724;2023-06-01T08:10:11;14.40;99.90
30628;DHT22;17394;50.890;4.724;2023-06-01T08:12:39;14.40;99.90
30628;DHT22;17394;50.890;4.724;2023-06-01T08:15:06;14.20;99.90
30628;DHT22;17394;50.890;4.724;2023-06-01T08:17:32;14.30;99.90
30628;DHT22;17394;50.890;4.724;2023-06-01T08:19:58;14.40;99.90
30628;DHT22;17394;50.890;4.724;2023-06-01T08:22:25;14.50;99.90
30628;DHT22;17394;50.890;4.724;2023-06-01T08:24:51;14.60;99.90
30628;DHT22;17394;50.890;4.724;2023-06-01T08:27:21;14.70;99.90
30628;DHT22;17394;50.890;4.724;2023-06-01T08:29:47;14.80;99.90
30628;DHT22;17394;50.890;4.724;2023-06-01T08:32:16;14.80;99.90
30628;DHT22;17394;50.890;4.724;2023-06-01T08:34:43;14.80;99.90
30628;DHT22;17394;50.890;4.724;2023-06-01T08:37:10;14.90;99.90
30628;DHT22;17394;50.890;4.724;2023-06-01T08:39:36;14.90;99.90
30628;DHT22;17394;50.890;4.724;2023-06-01T08:44:28;15.00;99.90
30628;DHT22;17394;50.890;4.724;2023-06-01T08:46:59;15.20;99.90
30628;DHT22;17394;50.890;4.724;2023-06-01T08:49:26;15.40;99.90
30628;DHT22;17394;50.890;4.724;2023-06-01T08:51:59;15.60;99.90
30628;DHT22;17394;50.890;4.724;2023-06-01T08:54:26;15.50;99.90
30628;DHT22;17394;50.890;4.724;2023-06-01T08:56:54;15.50;99.90
30628;DHT22;17394;50.890;4.724;2023-06-01T08:59:21;15.60;99.90
30628;DHT22;17394;50.890;4.724;2023-06-01T09:01:47;15.80;99.90
30628;DHT22;17394;50.890;4.724;2023-06-01T09:04:15;16.10;99.90
30628;DHT22;17394;50.890;4.724;2023-06-01T09:06:42;16.30;99.90
30628;DHT22;17394;50.890;4.724;2023-06-01T09:09:08;16.30;99.90
30628;DHT22;17394;50.890;4.724;2023-06-01T09:11:38;16.40;99.90
30628;DHT22;17394;50.890;4.724;2023-06-01T09:14:23;16.60;99.90
30628;DHT22;17394;50.890;4.724;2023-06-01T09:16:50;16.80;99.90
30628;DHT22;17394;50.890;4.724;2023-06-01T09:19:17;17.20;99.90
30628;DHT22;17394;50.890;4.724;2023-06-01T09:21:56;17.20;99.90
30628;DHT22;17394;50.890;4.724;2023-06-01T09:24:23;17.20;99.90
30628;DHT22;17394;50.890;4.724;2023-06-01T09:26:49;17.40;99.90
30628;DHT22;17394;50.890;4.724;2023-06-01T09:29:19;17.50;99.90
30628;DHT22;17394;50.890;4.724;2023-06-01T09:31:45;17.40;99.90
30628;DHT22;17394;50.890;4.724;2023-06-01T09:36:50;17.60;99.90
30628;DHT22;17394;50.890;4.724;2023-06-01T09:39:17;17.70;99.90
30628;DHT22;17394;50.890;4.724;2023-06-01T09:44:13;18.00;99.90
30628;DHT22;17394;50.890;4.724;2023-06-01T09:46:50;18.10;99.90
30628;DHT22;17394;50.890;4.724;2023-06-01T09:49:24;18.20;99.90
30628;DHT22;17394;50.890;4.724;2023-06-01T09:51:51;18.60;99.90
30628;DHT22;17394;50.890;4.724;2023-06-01T09:54:21;19.00;99.90
30628;DHT22;17394;50.890;4.724;2023-06-01T09:56:47;18.90;99.90
30628;DHT22;17394;50.890;4.724;2023-06-01T09:59:13;18.90;99.90
30628;DHT22;17394;50.890;4.724;2023-06-01T10:01:39;19.00;99.90
30628;DHT22;17394;50.890;4.724;2023-06-01T10:04:06;19.20;99.90
30628;DHT22;17394;50.890;4.724;2023-06-01T10:06:33;19.20;99.90
30628;DHT22;17394;50.890;4.724;2023-06-01T10:09:00;19.40;99.90
30628;DHT22;17394;50.890;4.724;2023-06-01T10:11:27;19.60;99.90
30628;DHT22;17394;50.890;4.724;2023-06-01T10:13:54;19.80;99.90
30628;DHT22;17394;50.890;4.724;2023-06-01T10:16:21;20.00;99.90
30628;DHT22;17394;50.890;4.724;2023-06-01T10:18:48;20.20;99.90
30628;DHT22;17394;50.890;4.724;2023-06-01T10:21:17;20.30;99.90
30628;DHT22;17394;50.890;4.724;2023-06-01T10:23:43;20.30;99.90
30628;DHT22;17394;50.890;4.724;2023-06-01T10:26:12;20.30;99.90
30628;DHT22;17394;50.890;4.724;2023-06-01T10:28:40;20.30;99.90
30628;DHT22;17394;50.890;4.724;2023-06-01T10:33:51;20.20;99.90
30628;DHT22;17394;50.890;4.724;2023-06-01T10:36:18;20.00;99.90
30628;DHT22;17394;50.890;4.724;2023-06-01T10:38:44;20.10;99.90
30628;DHT22;17394;50.890;4.724;2023-06-01T10:41:27;20.20;99.90
30628;DHT22;17394;50.890;4.724;2023-06-01T10:43:54;20.40;99.90
30628;DHT22;17394;50.890;4.724;2023-06-01T10:46:36;20.50;99.90
30628;DHT22;17394;50.890;4.724;2023-06-01T10:49:02;20.70;99.90
30628;DHT22;17394;50.890;4.724;2023-06-01T10:51:29;20.70;99.90
30628;DHT22;17394;50.890;4.724;2023-06-01T10:54:26;20.70;99.90
30628;DHT22;17394;50.890;4.724;2023-06-01T10:56:42;20.60;99.90
30628;DHT22;17394;50.890;4.724;2023-06-01T11:01:35;20.80;99.90
30628;DHT22;17394;50.890;4.724;2023-06-01T11:04:02;20.90;99.90
30628;DHT22;17394;50.890;4.724;2023-06-01T11:06:40;21.00;99.90
30628;DHT22;17394;50.890;4.724;2023-06-01T11:09:08;21.20;99.90
30628;DHT22;17394;50.890;4.724;2023-06-01T11:14:14;21.30;99.90
30628;DHT22;17394;50.890;4.724;2023-06-01T11:16:41;21.30;99.90
30628;DHT22;17394;50.890;4.724;2023-06-01T11:19:08;21.30;99.90
30628;DHT22;17394;50.890;4.724;2023-06-01T11:21:41;21.60;99.90
30628;DHT22;17394;50.890;4.724;2023-06-01T11:24:15;21.60;99.90
30628;DHT22;17394;50.890;4.724;2023-06-01T11:26:45;21.60;99.90
30628;DHT22;17394;50.890;4.724;2023-06-01T11:29:18;21.60;99.90
30628;DHT22;17394;50.890;4.724;2023-06-01T11:31:46;21.60;99.90
30628;DHT22;17394;50.890;4.724;2023-06-01T11:34:14;21.80;99.90
30628;DHT22;17394;50.890;4.724;2023-06-01T11:36:43;21.80;99.90
30628;DHT22;17394;50.890;4.724;2023-06-01T11:41:43;21.80;99.90
30628;DHT22;17394;50.890;4.724;2023-06-01T11:44:10;21.90;99.90
30628;DHT22;17394;50.890;4.724;2023-06-01T11:46:36;22.10;99.90
30628;DHT22;17394;50.890;4.724;2023-06-01T11:49:05;22.10;99.90
30628;DHT22;17394;50.890;4.724;2023-06-01T11:51:33;22.20;99.90
30628;DHT22;17394;50.890;4.724;2023-06-01T11:54:01;22.30;99.90
30628;DHT22;17394;50.890;4.724;2023-06-01T11:56:32;22.40;99.90
30628;DHT22;17394;50.890;4.724;2023-06-01T11:59:02;22.40;99.90
30628;DHT22;17394;50.890;4.724;2023-06-01T12:01:34;22.50;99.90
30628;DHT22;17394;50.890;4.724;2023-06-01T12:04:02;22.60;99.90
30628;DHT22;17394;50.890;4.724;2023-06-01T12:06:28;22.50;99.90
30628;DHT22;17394;50.890;4.724;2023-06-01T12:08:55;22.40;99.90
30628;DHT22;17394;50.890;4.724;2023-06-01T12:11:25;22.50;99.90
30628;DHT22;17394;50.890;4.724;2023-06-01T12:13:53;22.70;99.90
30628;DHT22;17394;50.890;4.724;2023-06-01T12:16:19;22.80;99.90
30628;DHT22;17394;50.890;4.724;2023-06-01T12:18:45;22.70;99.90
30628;DHT22;17394;50.890;4.724;2023-06-01T12:21:12;22.60;99.90
30628;DHT22;17394;50.890;4.724;2023-06-01T12:23:39;22.50;99.90
30628;DHT22;17394;50.890;4.724;2023-06-01T12:26:05;22.60;99.90
30628;DHT22;17394;50.890;4.724;2023-06-01T12:28:48;22.70;99.90
30628;DHT22;17394;50.890;4.724;2023-06-01T12:31:16;22.80;99.90
30628;DHT22;17394;50.890;4.724;2023-06-01T12:33:43;22.90;99.90
30628;DHT22;17394;50.890;4.724;2023-06-01T12:36:12;22.90;99.90
30628;DHT22;17394;50.890;4.724;2023-06-01T12:38:53;22.70;99.90
30628;DHT22;17394;50.890;4.724;2023-06-01T12:41:19;22.70;99.90
30628;DHT22;17394;50.890;4.724;2023-06-01T12:43:47;22.70;99.90
30628;DHT22;17394;50.890;4.724;2023-06-01T12:46:19;22.80;99.90
30628;DHT22;17394;50.890;4.724;2023-06-01T12:48:47;22.80;99.90
30628;DHT22;17394;50.890;4.724;2023-06-01T12:51:13;22.90;99.90
30628;DHT22;17394;50.890;4.724;2023-06-01T12:53:40;22.90;99.90
30628;DHT22;17394;50.890;4.724;2023-06-01T12:56:08;23.00;99.90
30628;DHT22;17394;50.890;4.724;2023-06-01T12:58:35;23.10;99.90
30628;DHT22;17394;50.890;4.724;2023-06-01T13:01:03;23.20;99.90
30628;DHT22;17394;50.890;4.724;2023-06-01T13:03:30;23.30;99.90
30628;DHT22;17394;50.890;4.724;2023-06-01T13:05:56;23.40;99.90
30628;DHT22;17394;50.890;4.724;2023-06-01T13:08:23;23.40;99.90
30628;DHT22;17394;50.890;4.724;2023-06-01T13:10:49;23.50;99.90
30628;DHT22;17394;50.890;4.724;2023-06-01T13:13:16;23.60;99.90
30628;DHT22;17394;50.890;4.724;2023-06-01T13:15:45;23.50;99.90
30628;DHT22;17394;50.890;4.724;2023-06-01T13:18:11;23.40;99.90
30628;DHT22;17394;50.890;4.724;2023-06-01T13:20:38;23.60;99.90
30628;DHT22;17394;50.890;4.724;2023-06-01T13:23:07;23.50;99.90
30628;DHT22;17394;50.890;4.724;2023-06-01T13:25:35;23.40;99.90
30628;DHT22;17394;50.890;4.724;2023-06-01T13:28:11;23.40;99.90
30628;DHT22;17394;50.890;4.724;2023-06-01T13:30:37;23.40;99.90
30628;DHT22;17394;50.890;4.724;2023-06-01T13:33:05;23.50;99.90
30628;DHT22;17394;50.890;4.724;2023-06-01T13:35:32;23.50;99.90
30628;DHT22;17394;50.890;4.724;2023-06-01T13:37:58;23.50;99.50
30628;DHT22;17394;50.890;4.724;2023-06-01T13:40:25;23.40;99.90
30628;DHT22;17394;50.890;4.724;2023-06-01T13:42:52;23.60;99.90
30628;DHT22;17394;50.890;4.724;2023-06-01T13:45:22;23.60;99.90
30628;DHT22;17394;50.890;4.724;2023-06-01T13:47:48;23.70;99.90
30628;DHT22;17394;50.890;4.724;2023-06-01T13:50:16;23.70;99.90
30628;DHT22;17394;50.890;4.724;2023-06-01T13:52:42;23.70;99.20
30628;DHT22;17394;50.890;4.724;2023-06-01T13:55:08;23.60;99.90
30628;DHT22;17394;50.890;4.724;2023-06-01T13:57:35;23.70;99.60
30628;DHT22;17394;50.890;4.724;2023-06-01T14:00:02;23.70;99.10
30628;DHT22;17394;50.890;4.724;2023-06-01T14:02:29;23.80;99.80
30628;DHT22;17394;50.890;4.724;2023-06-01T14:04:56;23.90;99.90
30628;DHT22;17394;50.890;4.724;2023-06-01T14:07:23;24.10;99.90
30628;DHT22;17394;50.890;4.724;2023-06-01T14:09:50;24.10;98.50
30628;DHT22;17394;50.890;4.724;2023-06-01T14:12:17;24.20;99.80
30628;DHT22;17394;50.890;4.724;2023-06-01T14:14:45;24.40;99.90
30628;DHT22;17394;50.890;4.724;2023-06-01T14:17:12;24.50;99.10
30628;DHT22;17394;50.890;4.724;2023-06-01T14:19:38;24.20;97.40
30628;DHT22;17394;50.890;4.724;2023-06-01T14:22:05;24.10;99.00
30628;DHT22;17394;50.890;4.724;2023-06-01T14:24:32;23.90;98.50
30628;DHT22;17394;50.890;4.724;2023-06-01T14:26:58;24.00;99.80
30628;DHT22;17394;50.890;4.724;2023-06-01T14:29:26;24.00;98.70
30628;DHT22;17394;50.890;4.724;2023-06-01T14:31:52;23.90;98.80
30628;DHT22;17394;50.890;4.724;2023-06-01T14:34:18;23.90;99.10
30628;DHT22;17394;50.890;4.724;2023-06-01T14:36:45;23.80;98.80
30628;DHT22;17394;50.890;4.724;2023-06-01T14:39:13;23.90;99.00
30628;DHT22;17394;50.890;4.724;2023-06-01T14:41:39;23.90;98.40
30628;DHT22;17394;50.890;4.724;2023-06-01T14:44:06;23.90;99.20
30628;DHT22;17394;50.890;4.724;2023-06-01T14:46:32;24.10;99.90
30628;DHT22;17394;50.890;4.724;2023-06-01T14:48:58;24.00;98.10
30628;DHT22;17394;50.890;4.724;2023-06-01T14:51:27;23.90;98.00
30628;DHT22;17394;50.890;4.724;2023-06-01T14:53:53;23.90;98.90
30628;DHT22;17394;50.890;4.724;2023-06-01T14:56:19;24.00;98.20
30628;DHT22;17394;50.890;4.724;2023-06-01T14:58:47;24.00;99.00
30628;DHT22;17394;50.890;4.724;2023-06-01T15:01:14;24.20;99.40
30628;DHT22;17394;50.890;4.724;2023-06-01T15:03:40;24.20;98.80
30628;DHT22;17394;50.890;4.724;2023-06-01T15:06:08;24.20;99.10
30628;DHT22;17394;50.890;4.724;2023-06-01T15:08:34;24.30;98.80
30628;DHT22;17394;50.890;4.724;2023-06-01T15:11:02;24.20;98.30
30628;DHT22;17394;50.890;4.724;2023-06-01T15:13:30;24.40;98.00
30628;DHT22;17394;50.890;4.724;2023-06-01T15:15:57;24.20;97.40
30628;DHT22;17394;50.890;4.724;2023-06-01T15:18:23;23.90;98.50
30628;DHT22;17394;50.890;4.724;2023-06-01T15:20:49;23.80;98.90
30628;DHT22;17394;50.890;4.724;2023-06-01T15:23:17;23.80;99.60
30628;DHT22;17394;50.890;4.724;2023-06-01T15:25:44;23.90;99.90
30628;DHT22;17394;50.890;4.724;2023-06-01T15:28:16;23.90;99.90
30628;DHT22;17394;50.890;4.724;2023-06-01T15:30:44;23.90;99.90
30628;DHT22;17394;50.890;4.724;2023-06-01T15:33:11;23.90;99.90
30628;DHT22;17394;50.890;4.724;2023-06-01T15:35:39;24.00;99.90
30628;DHT22;17394;50.890;4.724;2023-06-01T15:38:05;23.80;99.80
30628;DHT22;17394;50.890;4.724;2023-06-01T15:40:33;23.70;99.90
30628;DHT22;17394;50.890;4.724;2023-06-01T15:43:00;23.50;99.60
30628;DHT22;17394;50.890;4.724;2023-06-01T15:45:27;23.50;99.90
30628;DHT22;17394;50.890;4.724;2023-06-01T15:47:59;23.40;99.10
30628;DHT22;17394;50.890;4.724;2023-06-01T15:50:27;23.20;98.80
30628;DHT22;17394;50.890;4.724;2023-06-01T15:52:54;23.00;99.20
30628;DHT22;17394;50.890;4.724;2023-06-01T15:55:19;23.20;99.90
30628;DHT22;17394;50.890;4.724;2023-06-01T15:57:45;23.30;99.90
30628;DHT22;17394;50.890;4.724;2023-06-01T16:00:12;23.30;99.10
30628;DHT22;17394;50.890;4.724;2023-06-01T16:02:39;23.10;98.90